Conant, Illinois
Current Conditions -  °F | °C
As of 12:15 PM on Thursday 18 Dec 2014 (Local Time) from KSAR Reporting Station
Light Snow Light Snow  
Wind Chill: 32°   Ceiling: 900
Heat Index: 32°   Visibility: 5mi
Dew Point: 29°   Wind: 0mph
Humidity: 90%   Direction: NA
Pressure: 30.27"   Gusts: NA
Location:  38.0951°N, 89.3926°W
Report Text: KSAR 181815Z AUTO 00000KT 5SM -SN OVC009 00/M01 A3027 RMK AO2 T00001015
Loading
Personal Weather Stations






























Interactive Weather Map New forecast layout! Learn more

10-Day Weather Forecast

Advertisements
Track Severe Weather on mobile